Absecon Highlands, NJ

1:43 AM EDT on October 20, 2014 (GMT -0400)
Galloway Twp Police Dept | Change Station
CLOSE
Current Station
Personal Weather Station
Location: Galloway, NJ
Elevation: 30 ft
Nearby Weather Stations
Active Advisory: Freeze Warning

Elev 30 ft 39.46 °N, 74.50 °W | Updated 1 second ago

Clear
Clear
34.7 °F
Feels Like 35 °F
N
0.0
Wind Variable Wind from WSW
Gusts 0.0 mph

Today
High -- | Low -- °F
--% Chance of Precip.
Yesterday
High -- | Low -- °F
Precip. -- in
7:13 AM 6:11 PM
Waning Crescent, 13% visible
Pressure 30.11 in
Visibility 10.0 miles
Clouds Clear
Windchill 35 °F
Dew Point 32 °F
Humidity 90%
Rainfall 0.00 in
Snow Depth Not available.
UV 0 out of 12
Pollen 2.00 out of 12
Ozone Good
PM2.5 Moderate
Flu Activity Sporadic
METAR KACY 200454Z 00000KT 10SM CLR 02/M01 A3010 RMK AO2 SLP194 T00171011 401390011

More Conditions Fewer Conditions

Pressure 30.11 in
Visibility 10.0 miles
Clouds Clear
Windchill 35 °F
Dew Point 32 °F
Humidity 90%
Rainfall 0.00 in
Snow Depth Not available.
UV 0 out of 12
Pollen 2.00 out of 12
Ozone Good
PM2.5 Moderate
Flu Activity Sporadic
METAR KACY 200454Z 00000KT 10SM CLR 02/M01 A3010 RMK AO2 SLP194 T00171011 401390011

More Conditions Fewer Conditions

10-Day Weather Forecast

Almanac

Astronomy

Oct. 20, 2014 Rise Set
Actual Time 7:13 AM EDT 6:11 PM EDT
Civil Twilight 6:45 AM EDT 6:39 PM EDT
Nautical Twilight 6:14 AM EDT 7:10 PM EDT
Astronomical Twilight 5:43 AM EDT 7:41 PM EDT
Moon 3:59 AM EDT 4:32 PM EDT
Length of Visible Light 11h 53m
Length of Day
10h 58m
Waning Crescent, 13% of the Moon is Illuminated
Today
Waning Crescent
Oct 23
New
Oct 30
First Quarter
Nov 6
Full
Nov 14
Last Quarter

Today's Extremes

State Highs State Lows

Community

WunderPhotos

Upload Photos

1,763,313 photos uploaded!

Nearby

Air Quality

  Air Quality AQ Index Pollutant
Yesterday Good
PM2.5
Yesterday Good
OZONE
Current Moderate
PM2.5
Current Good
OZONE
Monday Good
PM2.5
Tuesday Good
PM2.5

Snow Depth

Station Depth Elevation
No new snow has been reported.

Earthquake Activity

City Distance Mag. Time & Date
No recent earthquake activity has been reported nearby.
Minimum magnitude displayed is 2.5.

Coastal Water Temperatures

Place Temperature
Atlantic City, NJ 64.0 °F

Nearby Weather Stations